createdAt,value
2022-07-28T00:01:11.509Z,47.24
2022-07-28T00:03:39.301Z,47.13
2022-07-28T00:06:07.342Z,47.33
2022-07-28T00:08:35.085Z,47.50
2022-07-28T00:11:04.482Z,47.18
2022-07-28T00:13:32.577Z,47.37
2022-07-28T00:16:00.417Z,47.49
2022-07-28T00:18:28.250Z,47.38
2022-07-28T00:20:56.901Z,47.33
2022-07-28T00:23:38.646Z,47.42
2022-07-28T00:26:09.609Z,47.46
2022-07-28T00:28:37.705Z,47.55
2022-07-28T00:31:09.215Z,47.55
2022-07-28T00:33:40.325Z,47.74
2022-07-28T00:36:10.395Z,47.54
2022-07-28T00:38:40.917Z,47.93
2022-07-28T00:41:13.430Z,47.98
2022-07-28T00:43:42.550Z,47.84
2022-07-28T00:46:11.044Z,48.21
2022-07-28T00:48:39.887Z,48.09
2022-07-28T00:51:10.283Z,48.11
2022-07-28T00:53:38.685Z,48.08
2022-07-28T00:56:07.477Z,48.32
2022-07-28T00:58:37.927Z,48.59
2022-07-28T01:01:06.014Z,48.27
2022-07-28T01:03:35.670Z,48.33
2022-07-28T01:06:09.692Z,48.67
2022-07-28T01:08:49.225Z,48.47
2022-07-28T01:11:27.230Z,48.62
2022-07-28T01:14:04.102Z,48.73
2022-07-28T01:16:31.940Z,48.70
2022-07-28T01:19:11.000Z,48.88
2022-07-28T01:21:42.139Z,49.06
2022-07-28T01:24:18.929Z,48.85
2022-07-28T01:26:56.086Z,48.75
2022-07-28T01:29:59.153Z,48.68
2022-07-28T01:32:33.499Z,48.79
2022-07-28T01:35:09.896Z,48.99
2022-07-28T01:37:44.150Z,48.77
2022-07-28T01:40:14.720Z,49.01
2022-07-28T01:42:47.586Z,48.95
2022-07-28T01:45:17.432Z,48.98
2022-07-28T01:47:47.886Z,49.32
2022-07-28T01:50:18.779Z,48.92
2022-07-28T01:52:49.528Z,48.86
2022-07-28T01:55:20.419Z,48.94
2022-07-28T01:57:49.636Z,48.91
2022-07-28T02:00:17.867Z,48.86
2022-07-28T02:02:49.550Z,49.16
2022-07-28T02:05:21.783Z,49.10
2022-07-28T02:07:52.466Z,49.27
2022-07-28T02:10:22.566Z,49.35
2022-07-28T02:12:52.998Z,49.29
2022-07-28T02:15:22.829Z,49.30
2022-07-28T02:17:54.254Z,49.47
2022-07-28T02:20:23.647Z,49.59
2022-07-28T02:22:53.322Z,49.50
2022-07-28T02:25:22.057Z,49.78
2022-07-28T02:27:53.346Z,49.57
2022-07-28T02:30:26.621Z,49.69
2022-07-28T02:32:57.970Z,49.55
2022-07-28T02:35:33.058Z,49.84
2022-07-28T02:38:07.663Z,49.73
2022-07-28T02:40:38.330Z,49.49
2022-07-28T02:43:11.383Z,49.98
2022-07-28T02:45:43.348Z,49.93
2022-07-28T02:48:15.997Z,49.96
2022-07-28T02:50:46.019Z,50.10
2022-07-28T02:53:16.521Z,49.65
2022-07-28T02:55:47.590Z,49.98
2022-07-28T02:58:17.542Z,50.27
2022-07-28T03:00:46.240Z,50.16
2022-07-28T03:03:16.256Z,50.04
2022-07-28T03:05:44.233Z,50.39
2022-07-28T03:08:12.095Z,50.29
2022-07-28T03:10:40.440Z,50.33
2022-07-28T03:13:08.354Z,50.48
2022-07-28T03:15:40.341Z,50.38
2022-07-28T03:18:08.447Z,50.46
2022-07-28T03:20:37.602Z,50.61
2022-07-28T03:23:05.705Z,50.48
2022-07-28T03:25:38.696Z,50.48
2022-07-28T03:28:09.510Z,50.69
2022-07-28T03:30:42.672Z,50.71
2022-07-28T03:33:11.184Z,50.71
2022-07-28T03:35:44.743Z,50.88
2022-07-28T03:38:15.444Z,51.10
2022-07-28T03:40:47.448Z,50.84
2022-07-28T03:43:18.013Z,51.26
2022-07-28T03:45:47.796Z,51.18
2022-07-28T03:48:16.233Z,51.30
2022-07-28T03:50:45.861Z,51.20
2022-07-28T03:53:21.231Z,51.07
2022-07-28T03:55:51.290Z,50.76
2022-07-28T03:58:19.331Z,50.94
2022-07-28T04:00:47.251Z,51.04
2022-07-28T04:03:35.728Z,51.13
2022-07-28T04:06:05.692Z,51.17
2022-07-28T04:08:33.716Z,51.38
2022-07-28T04:11:01.483Z,51.29
2022-07-28T04:13:29.197Z,51.32
2022-07-28T04:15:57.202Z,51.35
2022-07-28T04:18:24.966Z,51.38
2022-07-28T04:20:52.914Z,51.81
2022-07-28T04:23:22.432Z,51.50
2022-07-28T04:25:50.135Z,51.52
2022-07-28T04:28:18.208Z,51.87
2022-07-28T04:30:46.195Z,51.78
2022-07-28T04:33:14.550Z,51.95
2022-07-28T04:35:42.278Z,52.01
2022-07-28T04:38:12.067Z,52.06
2022-07-28T04:40:42.291Z,52.01
2022-07-28T04:43:10.268Z,52.06
2022-07-28T04:45:38.615Z,51.86
2022-07-28T04:48:14.413Z,51.93
2022-07-28T04:50:45.794Z,51.95
2022-07-28T04:53:13.693Z,51.80
2022-07-28T04:55:42.982Z,51.84
2022-07-28T04:58:12.456Z,52.06
2022-07-28T05:00:40.802Z,52.01
2022-07-28T05:03:08.533Z,51.86
2022-07-28T05:05:36.322Z,51.77
2022-07-28T05:08:04.396Z,51.82
2022-07-28T05:10:32.180Z,52.53
2022-07-28T05:13:06.227Z,52.03
2022-07-28T05:15:34.041Z,52.39
2022-07-28T05:18:01.784Z,52.41
2022-07-28T05:20:29.924Z,52.30
2022-07-28T05:22:58.407Z,52.17
2022-07-28T05:25:26.525Z,52.14
2022-07-28T05:27:54.847Z,52.31
2022-07-28T05:30:23.969Z,52.39
2022-07-28T05:32:53.767Z,52.90
2022-07-28T05:35:21.880Z,53.20
2022-07-28T05:37:49.626Z,52.91
2022-07-28T05:40:18.352Z,52.73
2022-07-28T05:42:48.006Z,52.56
2022-07-28T05:45:17.695Z,52.75
2022-07-28T05:47:48.756Z,52.65
2022-07-28T05:50:18.016Z,52.61
2022-07-28T05:52:46.874Z,52.72
2022-07-28T05:55:15.475Z,52.77
2022-07-28T05:57:43.415Z,52.49
2022-07-28T06:00:14.050Z,52.59
2022-07-28T06:02:42.187Z,52.58
2022-07-28T06:05:11.632Z,52.35
2022-07-28T06:07:42.415Z,52.34
2022-07-28T06:10:13.049Z,52.34
2022-07-28T06:12:42.267Z,52.15
2022-07-28T06:15:14.330Z,52.27
2022-07-28T06:17:42.521Z,52.26
2022-07-28T06:20:13.200Z,51.91
2022-07-28T06:22:44.922Z,51.92
2022-07-28T06:25:16.546Z,51.64
2022-07-28T06:27:46.789Z,51.61
2022-07-28T06:30:15.106Z,51.38
2022-07-28T06:32:43.030Z,51.36
2022-07-28T06:35:14.965Z,51.16
2022-07-28T06:37:43.134Z,50.85
2022-07-28T06:40:13.131Z,50.71
2022-07-28T06:42:41.561Z,50.76
2022-07-28T06:45:21.436Z,50.84
2022-07-28T06:47:49.595Z,50.70
2022-07-28T06:50:25.866Z,50.63
2022-07-28T06:52:54.505Z,50.69
2022-07-28T06:55:23.255Z,50.77
2022-07-28T06:57:50.941Z,50.62
2022-07-28T07:00:19.087Z,50.66
2022-07-28T07:02:47.094Z,50.18
2022-07-28T07:05:15.654Z,50.60
2022-07-28T07:07:45.670Z,50.02
2022-07-28T07:10:13.570Z,49.98
2022-07-28T07:12:41.300Z,49.93
2022-07-28T07:15:10.354Z,50.33
2022-07-28T07:17:38.402Z,49.81
2022-07-28T07:20:08.081Z,49.37
2022-07-28T07:22:35.898Z,48.96
2022-07-28T07:25:10.613Z,48.81
2022-07-28T07:27:38.948Z,48.48
2022-07-28T07:30:08.212Z,48.19
2022-07-28T07:32:36.384Z,47.62
2022-07-28T07:35:04.307Z,48.16
2022-07-28T07:37:32.933Z,47.29
2022-07-28T07:40:01.051Z,46.76
2022-07-28T07:42:30.377Z,47.04
2022-07-28T07:44:58.452Z,47.02
2022-07-28T07:47:26.191Z,46.66
2022-07-28T07:49:54.027Z,46.76
2022-07-28T07:52:21.715Z,46.44
2022-07-28T07:54:49.457Z,46.22
2022-07-28T07:57:17.676Z,46.04
2022-07-28T07:59:46.925Z,45.67
2022-07-28T08:02:14.682Z,45.79
2022-07-28T08:04:42.657Z,45.58
2022-07-28T08:07:10.654Z,45.30
2022-07-28T08:09:38.497Z,45.23
2022-07-28T08:12:06.957Z,44.79
2022-07-28T08:14:34.669Z,44.73
2022-07-28T08:17:03.968Z,43.50
2022-07-28T08:19:31.676Z,44.31
2022-07-28T08:21:59.827Z,44.46
2022-07-28T08:24:33.013Z,44.13
2022-07-28T08:27:02.890Z,44.10
2022-07-28T08:29:31.154Z,44.18
2022-07-28T08:31:59.473Z,44.20
2022-07-28T08:34:33.397Z,43.42
2022-07-28T08:37:03.875Z,43.68
2022-07-28T08:39:32.395Z,42.97
2022-07-28T08:42:06.244Z,43.03
2022-07-28T08:44:45.035Z,43.31
2022-07-28T08:47:13.637Z,42.94
2022-07-28T08:49:44.339Z,42.72
2022-07-28T08:52:14.957Z,42.76
2022-07-28T08:54:46.194Z,43.01
2022-07-28T08:57:19.799Z,43.26
2022-07-28T08:59:50.081Z,43.51
2022-07-28T09:02:18.579Z,43.11
2022-07-28T09:04:49.740Z,42.85
2022-07-28T09:07:18.116Z,43.37
2022-07-28T09:09:49.973Z,43.41
2022-07-28T09:12:18.475Z,43.56
2022-07-28T09:14:47.191Z,43.05
2022-07-28T09:17:15.312Z,43.16
2022-07-28T09:19:43.448Z,44.00
2022-07-28T09:22:13.349Z,44.13
2022-07-28T09:24:44.635Z,43.41
2022-07-28T09:27:14.860Z,43.12
2022-07-28T09:29:47.657Z,42.95
2022-07-28T09:32:17.603Z,43.20
2022-07-28T09:34:46.769Z,42.79
2022-07-28T09:37:24.746Z,43.83
2022-07-28T09:39:58.759Z,42.44
2022-07-28T09:42:27.058Z,42.92
2022-07-28T09:45:22.450Z,42.89
2022-07-28T09:48:10.171Z,43.62
2022-07-28T09:50:39.383Z,43.36
2022-07-28T09:53:28.433Z,40.85
2022-07-28T09:55:58.439Z,40.87
2022-07-28T09:58:27.010Z,41.73
2022-07-28T10:01:04.680Z,41.66
2022-07-28T10:03:35.890Z,41.94
2022-07-28T10:06:09.535Z,42.10
2022-07-28T10:08:44.433Z,41.70
2022-07-28T10:11:14.488Z,40.70
2022-07-28T10:14:04.006Z,40.34
2022-07-28T10:16:34.057Z,40.04
2022-07-28T10:19:04.152Z,40.73
2022-07-28T10:21:35.185Z,40.50
2022-07-28T10:24:07.550Z,39.31
2022-07-28T10:26:39.669Z,39.86
2022-07-28T10:29:08.862Z,39.14
2022-07-28T10:31:42.785Z,39.87
2022-07-28T10:34:16.496Z,40.21
2022-07-28T10:36:46.238Z,40.06
2022-07-28T10:39:21.480Z,40.29
2022-07-28T10:41:51.824Z,39.89
2022-07-28T10:44:20.809Z,40.08
2022-07-28T10:46:49.059Z,39.58
2022-07-28T10:49:17.804Z,39.07
2022-07-28T10:52:05.023Z,38.95
2022-07-28T10:54:48.354Z,39.52
2022-07-28T10:57:17.802Z,38.80
2022-07-28T11:00:12.868Z,38.77
2022-07-28T11:02:46.522Z,38.09
2022-07-28T11:05:36.778Z,38.76
2022-07-28T11:08:07.797Z,39.01
2022-07-28T11:10:51.483Z,38.95
2022-07-28T11:13:33.283Z,38.61
2022-07-28T11:16:21.000Z,39.03
2022-07-28T11:19:07.813Z,39.11
2022-07-28T11:22:32.673Z,39.00
2022-07-28T11:25:18.684Z,39.27
2022-07-28T11:28:06.619Z,39.49
2022-07-28T11:30:58.145Z,39.38
2022-07-28T11:33:47.316Z,38.93
2022-07-28T11:36:15.478Z,39.44
2022-07-28T11:39:22.230Z,40.03
2022-07-28T11:41:50.855Z,37.60
2022-07-28T11:44:28.617Z,39.28
2022-07-28T11:47:17.507Z,39.24
2022-07-28T11:49:46.849Z,38.32
2022-07-28T11:52:17.565Z,38.33
2022-07-28T11:54:54.896Z,38.44
2022-07-28T11:57:25.939Z,39.33
2022-07-28T12:00:06.514Z,37.55
2022-07-28T12:02:36.540Z,37.45
2022-07-28T12:05:13.791Z,36.60
2022-07-28T12:07:44.901Z,36.46
2022-07-28T12:10:53.905Z,36.07
2022-07-28T12:13:29.345Z,36.22
2022-07-28T12:15:59.207Z,35.57
2022-07-28T12:18:27.303Z,36.01
2022-07-28T12:20:55.869Z,36.33
2022-07-28T12:23:38.773Z,37.00
2022-07-28T12:26:34.452Z,37.18
2022-07-28T12:29:12.072Z,36.46
2022-07-28T12:31:54.234Z,36.55
2022-07-28T12:34:26.842Z,36.10
2022-07-28T12:36:58.152Z,36.84
2022-07-28T12:39:27.350Z,36.24
2022-07-28T12:42:04.493Z,36.02
2022-07-28T12:44:37.801Z,36.21
2022-07-28T12:47:09.193Z,35.37
2022-07-28T12:49:38.687Z,36.50
2022-07-28T12:52:17.599Z,35.90
2022-07-28T12:54:53.653Z,36.13
2022-07-28T12:57:48.317Z,36.02
2022-07-28T13:00:19.793Z,35.95
2022-07-28T13:02:50.263Z,35.67
2022-07-28T13:05:33.560Z,35.79
2022-07-28T13:08:07.752Z,35.79
2022-07-28T13:10:36.026Z,35.25
2022-07-28T13:13:06.744Z,35.35
2022-07-28T13:15:34.878Z,35.20
2022-07-28T13:18:05.194Z,35.51
2022-07-28T13:20:47.885Z,36.25
2022-07-28T13:23:15.996Z,36.07
2022-07-28T13:25:44.282Z,35.59
2022-07-28T13:28:25.949Z,35.82
2022-07-28T13:30:54.234Z,36.06
2022-07-28T13:33:23.657Z,34.92
2022-07-28T13:35:53.099Z,35.15
2022-07-28T13:38:21.338Z,35.80
2022-07-28T13:40:49.529Z,35.48
2022-07-28T13:43:17.619Z,35.83
2022-07-28T13:45:45.759Z,35.87
2022-07-28T13:48:13.991Z,36.62
2022-07-28T13:50:43.991Z,35.95
2022-07-28T13:53:35.659Z,36.13
2022-07-28T13:56:08.791Z,36.30
2022-07-28T13:58:37.710Z,36.33
2022-07-28T14:01:06.711Z,36.17
2022-07-28T14:03:55.780Z,36.75
2022-07-28T14:06:25.479Z,36.95
2022-07-28T14:08:53.230Z,36.24
2022-07-28T14:11:22.064Z,36.19
2022-07-28T14:13:52.088Z,36.56
2022-07-28T14:16:20.344Z,36.48
2022-07-28T14:18:49.533Z,36.00
2022-07-28T14:21:17.411Z,36.67
2022-07-28T14:23:47.502Z,36.23
2022-07-28T14:26:35.128Z,36.41
2022-07-28T14:29:04.683Z,36.65
2022-07-28T14:31:39.382Z,36.51
2022-07-28T14:34:08.100Z,36.03
2022-07-28T14:36:36.078Z,35.96
2022-07-28T14:39:09.166Z,35.29
2022-07-28T14:41:40.136Z,36.00
2022-07-28T14:44:07.896Z,35.30
2022-07-28T14:46:43.138Z,35.93
2022-07-28T14:49:10.909Z,35.78
2022-07-28T14:51:44.331Z,35.69
2022-07-28T14:54:14.179Z,36.06
2022-07-28T14:56:42.095Z,35.31
2022-07-28T14:59:10.244Z,34.92
2022-07-28T15:01:38.023Z,35.34
2022-07-28T15:04:06.410Z,35.48
2022-07-28T15:06:34.167Z,35.86
2022-07-28T15:09:02.876Z,36.42
2022-07-28T15:11:32.177Z,36.13
2022-07-28T15:14:00.375Z,35.96
2022-07-28T15:16:28.770Z,35.45
2022-07-28T15:18:56.510Z,35.29
2022-07-28T15:21:24.281Z,35.94
2022-07-28T15:23:52.312Z,36.39
2022-07-28T15:26:20.105Z,36.18
2022-07-28T15:28:49.563Z,35.77
2022-07-28T15:31:17.883Z,35.93
2022-07-28T15:33:54.885Z,35.73
2022-07-28T15:36:26.586Z,35.92
2022-07-28T15:38:55.014Z,35.52
2022-07-28T15:41:23.013Z,35.63
2022-07-28T15:43:52.629Z,35.66
2022-07-28T15:46:20.425Z,35.58
2022-07-28T15:48:48.360Z,36.10
2022-07-28T15:51:16.190Z,35.53
2022-07-28T15:53:46.082Z,35.92
2022-07-28T15:56:14.464Z,35.77
2022-07-28T15:58:42.712Z,35.76
2022-07-28T16:01:11.767Z,35.94
2022-07-28T16:03:39.514Z,36.30
2022-07-28T16:06:07.717Z,36.48
2022-07-28T16:08:35.478Z,36.69
2022-07-28T16:11:03.446Z,36.49
2022-07-28T16:13:37.053Z,36.63
2022-07-28T16:16:07.439Z,35.99
2022-07-28T16:18:38.135Z,36.58
2022-07-28T16:21:07.262Z,36.55
2022-07-28T16:23:35.623Z,37.08
2022-07-28T16:26:05.013Z,36.88
2022-07-28T16:28:32.821Z,36.53
2022-07-28T16:31:00.612Z,36.75
2022-07-28T16:33:28.330Z,36.69
2022-07-28T16:36:03.557Z,36.82
2022-07-28T16:38:31.357Z,36.60
2022-07-28T16:40:59.169Z,36.50
2022-07-28T16:43:27.018Z,37.10
2022-07-28T16:45:54.818Z,36.94
2022-07-28T16:48:22.649Z,36.49
2022-07-28T16:50:51.942Z,36.12
2022-07-28T16:53:21.082Z,36.41
2022-07-28T16:55:48.931Z,35.76
2022-07-28T16:58:18.129Z,35.86
2022-07-28T17:00:45.861Z,35.99
2022-07-28T17:03:13.708Z,36.14
2022-07-28T17:05:41.411Z,36.57
2022-07-28T17:08:10.038Z,36.30
2022-07-28T17:10:39.201Z,36.72
2022-07-28T17:13:07.229Z,36.79
2022-07-28T17:15:38.311Z,36.43
2022-07-28T17:18:06.874Z,36.97
2022-07-28T17:20:35.153Z,37.03
2022-07-28T17:23:04.121Z,37.05
2022-07-28T17:28:21.021Z,36.58
2022-07-28T17:30:48.807Z,36.46
2022-07-28T17:33:16.593Z,36.28
2022-07-28T17:35:45.008Z,36.44
2022-07-28T17:38:15.613Z,36.76
2022-07-28T17:40:43.982Z,36.81
2022-07-28T17:43:14.647Z,36.56
2022-07-28T17:45:44.806Z,37.02
2022-07-28T17:48:12.569Z,36.71
2022-07-28T17:50:40.442Z,36.87
2022-07-28T17:53:08.257Z,36.74
2022-07-28T17:55:57.704Z,36.92
2022-07-28T17:58:29.540Z,37.17
2022-07-28T18:01:10.088Z,36.78
2022-07-28T18:03:59.661Z,37.08
2022-07-28T18:06:33.946Z,37.10
2022-07-28T18:09:06.404Z,37.00
2022-07-28T18:11:43.354Z,36.97
2022-07-28T18:14:24.624Z,37.12
2022-07-28T18:16:53.766Z,36.95
2022-07-28T18:19:21.571Z,37.42
2022-07-28T18:21:49.975Z,37.26
2022-07-28T18:24:18.364Z,36.94
2022-07-28T18:26:46.568Z,36.70
2022-07-28T18:29:14.834Z,37.02
2022-07-28T18:31:46.609Z,37.04
2022-07-28T18:34:17.157Z,36.83
2022-07-28T18:36:45.827Z,37.45
2022-07-28T18:39:13.749Z,36.92
2022-07-28T18:41:46.157Z,37.11
2022-07-28T18:44:16.123Z,37.55
2022-07-28T18:46:44.535Z,37.32
2022-07-28T18:49:12.421Z,37.27
2022-07-28T18:51:44.998Z,37.67
2022-07-28T18:54:13.984Z,37.41
2022-07-28T18:56:42.212Z,37.42
2022-07-28T18:59:11.133Z,37.13
2022-07-28T19:01:39.322Z,37.58
2022-07-28T19:04:07.153Z,37.57
2022-07-28T19:06:36.390Z,37.46
2022-07-28T19:09:05.962Z,37.48
2022-07-28T19:11:34.033Z,37.13
2022-07-28T19:14:02.065Z,37.43
2022-07-28T19:16:29.810Z,37.63
2022-07-28T19:18:57.885Z,37.46
2022-07-28T19:21:25.674Z,37.65
2022-07-28T19:23:53.771Z,37.38
2022-07-28T19:26:23.795Z,37.25
2022-07-28T19:28:51.786Z,37.75
2022-07-28T19:31:19.785Z,37.32
2022-07-28T19:33:47.685Z,37.65
2022-07-28T19:36:15.745Z,37.41
2022-07-28T19:38:44.053Z,37.68
2022-07-28T19:41:12.896Z,37.54
2022-07-28T19:43:42.296Z,37.73
2022-07-28T19:46:10.776Z,37.56
2022-07-28T19:48:39.628Z,37.89
2022-07-28T19:51:07.471Z,38.22
2022-07-28T19:53:35.703Z,38.53
2022-07-28T19:56:07.214Z,38.67
2022-07-28T19:58:36.870Z,38.18
2022-07-28T20:01:06.468Z,38.53
2022-07-28T20:04:01.575Z,37.75
2022-07-28T20:06:24.699Z,38.36
2022-07-28T20:08:53.327Z,38.39
2022-07-28T20:11:21.631Z,38.33
2022-07-28T20:13:49.904Z,38.67
2022-07-28T20:16:20.385Z,38.41
2022-07-28T20:18:48.458Z,38.77
2022-07-28T20:21:16.868Z,38.63
2022-07-28T20:23:44.574Z,38.55
2022-07-28T20:26:14.566Z,39.28
2022-07-28T20:28:43.639Z,39.62
2022-07-28T20:31:16.434Z,39.32
2022-07-28T20:33:46.265Z,39.76
2022-07-28T20:36:14.079Z,39.42
2022-07-28T20:38:42.286Z,39.37
2022-07-28T20:41:10.042Z,39.52
2022-07-28T20:43:38.319Z,39.38
2022-07-28T20:46:06.532Z,39.55
2022-07-28T20:48:34.986Z,39.71
2022-07-28T20:51:04.410Z,39.69
2022-07-28T20:53:32.202Z,40.35
2022-07-28T20:56:00.216Z,40.84
2022-07-28T20:58:28.194Z,41.52
2022-07-28T21:00:57.937Z,41.91
2022-07-28T21:03:26.081Z,42.21
2022-07-28T21:05:54.176Z,41.12
2022-07-28T21:08:24.466Z,42.13
2022-07-28T21:10:52.375Z,42.35
2022-07-28T21:13:20.189Z,40.42
2022-07-28T21:15:47.935Z,40.89
2022-07-28T21:18:17.356Z,41.58
2022-07-28T21:20:45.444Z,40.82
2022-07-28T21:23:13.419Z,40.62
2022-07-28T21:25:45.096Z,40.51
2022-07-28T21:28:30.943Z,40.70
2022-07-28T21:30:59.082Z,40.83
2022-07-28T21:33:26.859Z,41.05
2022-07-28T21:35:54.665Z,41.09
2022-07-28T21:38:23.326Z,42.48
2022-07-28T21:40:52.441Z,41.96
2022-07-28T21:43:20.165Z,41.27
2022-07-28T21:45:49.138Z,41.21
2022-07-28T21:48:19.136Z,42.82
2022-07-28T21:50:46.869Z,42.75
2022-07-28T21:53:17.248Z,43.14
2022-07-28T21:55:45.671Z,42.07
2022-07-28T21:58:15.553Z,41.59
2022-07-28T22:00:43.995Z,42.16
2022-07-28T22:03:12.339Z,42.90
2022-07-28T22:05:40.333Z,42.72
2022-07-28T22:08:09.350Z,43.34
2022-07-28T22:10:37.146Z,43.24
2022-07-28T22:13:05.156Z,42.48
2022-07-28T22:15:34.310Z,42.71
2022-07-28T22:18:02.349Z,43.29
2022-07-28T22:20:30.525Z,42.99
2022-07-28T22:22:58.234Z,42.87
2022-07-28T22:25:26.220Z,42.89
2022-07-28T22:27:54.455Z,41.74
2022-07-28T22:30:22.351Z,42.88
2022-07-28T22:32:51.706Z,43.14
2022-07-28T22:35:19.465Z,43.10
2022-07-28T22:37:47.210Z,43.35
2022-07-28T22:40:16.355Z,43.55
2022-07-28T22:42:44.904Z,43.27
2022-07-28T22:45:13.901Z,42.71
2022-07-28T22:47:42.335Z,43.26
2022-07-28T22:50:11.701Z,43.44
2022-07-28T22:52:40.043Z,43.42
2022-07-28T22:55:08.897Z,43.63
2022-07-28T22:57:36.826Z,43.78
2022-07-28T23:00:06.376Z,43.92
2022-07-28T23:02:35.571Z,43.13
2022-07-28T23:05:05.210Z,43.04
2022-07-28T23:07:53.319Z,43.10
2022-07-28T23:10:22.384Z,42.99
2022-07-28T23:12:50.391Z,43.15
2022-07-28T23:15:18.298Z,43.46
2022-07-28T23:17:46.054Z,43.23
2022-07-28T23:20:13.991Z,43.01
2022-07-28T23:22:43.089Z,43.26
2022-07-28T23:25:10.958Z,43.88
2022-07-28T23:27:38.880Z,44.29
2022-07-28T23:30:07.935Z,44.11
2022-07-28T23:32:35.659Z,43.18
2022-07-28T23:35:03.683Z,43.51
2022-07-28T23:37:34.324Z,43.31
2022-07-28T23:40:03.837Z,43.48
2022-07-28T23:42:31.590Z,43.39
2022-07-28T23:44:59.345Z,43.74
2022-07-28T23:47:27.321Z,43.83
2022-07-28T23:49:55.492Z,43.41
2022-07-28T23:52:23.266Z,43.56
2022-07-28T23:54:51.271Z,43.83
2022-07-28T23:57:20.402Z,43.69
2022-07-28T23:59:48.164Z,44.09
